Time;durP1;ratioP1;P1;durP2;ratioP2;P2;SDS_P1;SDS_P2;PMS_P1;PMS_P2;Temp;Humidity;BMP_temperature;BMP_pressure;BME280_temperature;BME280_humidity;BME280_pressure;Samples;Min_cycle;Max_cycle;Signal;HPM_P1;HPM_P2
2021/10/05 00:00:10;;;;;;;6.18;3.35;;;;;;;12.44;44.47;94536.72;5003475;28;20032;-77
2021/10/05 00:02:35;;;;;;;4.47;2.70;;;;;;;12.30;44.57;94506.69;5004497;28;20207;-72
2021/10/05 00:05:01;;;;;;;6.30;3.45;;;;;;;12.41;44.56;94524.00;5007623;28;20511;-76
2021/10/05 00:07:27;;;;;;;3.53;2.60;;;;;;;12.47;44.46;94535.28;5006738;28;20046;-76
2021/10/05 00:09:52;;;;;;;4.28;2.80;;;;;;;12.30;45.04;94511.22;5004373;28;20076;-77
2021/10/05 00:12:17;;;;;;;6.03;2.90;;;;;;;12.39;45.01;94522.72;4995432;28;20041;-74
2021/10/05 00:14:45;;;;;;;3.13;2.42;;;;;;;12.34;44.80;94512.97;5001828;28;20543;-75
2021/10/05 00:17:10;;;;;;;4.43;2.95;;;;;;;12.39;44.92;94528.06;5011755;28;20046;-77
2021/10/05 00:19:36;;;;;;;4.13;2.90;;;;;;;12.01;45.13;94485.81;5001513;28;20527;-73
2021/10/05 00:22:02;;;;;;;4.70;2.60;;;;;;;12.20;45.15;94514.16;5005339;28;20072;-76
2021/10/05 00:24:28;;;;;;;4.75;3.42;;;;;;;12.28;45.32;94516.06;5010000;28;20057;-77
2021/10/05 00:26:53;;;;;;;3.72;2.63;;;;;;;12.23;45.45;94519.66;4997706;28;20109;-77
2021/10/05 00:29:19;;;;;;;4.68;3.53;;;;;;;12.27;45.53;94522.50;5002319;28;20033;-76
2021/10/05 00:31:54;;;;;;;4.03;2.80;;;;;;;12.25;45.41;94522.81;5003334;28;20524;-72
2021/10/05 00:34:20;;;;;;;5.03;3.13;;;;;;;12.10;45.15;94506.41;5000149;28;20498;-76
2021/10/05 00:36:45;;;;;;;3.58;3.25;;;;;;;12.24;45.39;94531.09;5004729;28;20053;-77
2021/10/05 00:39:11;;;;;;;4.50;3.20;;;;;;;12.11;45.08;94515.97;5006881;28;20481;-76
2021/10/05 00:41:36;;;;;;;4.68;3.15;;;;;;;12.10;45.22;94509.06;5007815;28;20045;-74
2021/10/05 00:44:01;;;;;;;3.78;3.10;;;;;;;12.23;45.27;94514.31;5002629;28;20041;-77
2021/10/05 00:46:28;;;;;;;5.20;3.58;;;;;;;12.23;45.27;94518.84;5004572;28;21448;-77
2021/10/05 00:48:54;;;;;;;4.32;3.00;;;;;;;12.13;45.13;94503.13;5007040;28;20048;-76
2021/10/05 00:51:26;;;;;;;4.57;3.47;;;;;;;12.24;45.06;94520.44;5005030;28;20041;-77
2021/10/05 00:53:52;;;;;;;3.97;3.00;;;;;;;12.17;45.22;94496.91;5003670;28;20021;-77
2021/10/05 00:56:19;;;;;;;5.60;2.80;;;;;;;12.23;45.19;94516.97;5006481;28;20116;-77
2021/10/05 00:58:44;;;;;;;4.88;3.50;;;;;;;12.21;45.81;94515.72;5007800;28;20045;-74
2021/10/05 01:01:10;;;;;;;4.40;2.92;;;;;;;12.02;45.81;94495.41;4996821;28;20500;-76
2021/10/05 01:03:35;;;;;;;4.35;3.30;;;;;;;11.97;45.80;94508.84;5008796;28;20032;-73
2021/10/05 01:06:01;;;;;;;4.55;2.97;;;;;;;11.97;45.89;94508.84;5002769;28;20040;-76
2021/10/05 01:08:29;;;;;;;5.15;4.07;;;;;;;11.85;46.22;94508.59;5009528;28;20467;-77
2021/10/05 01:10:55;;;;;;;4.03;3.03;;;;;;;11.90;46.05;94511.16;5001907;28;20048;-76
2021/10/05 01:13:20;;;;;;;4.05;3.00;;;;;;;11.84;46.34;94506.22;5004243;28;20029;-76
2021/10/05 01:15:45;;;;;;;5.15;3.80;;;;;;;11.73;46.53;94489.72;5009389;28;20453;-75
2021/10/05 01:18:11;;;;;;;5.43;3.67;;;;;;;11.79;46.53;94499.16;5008061;28;20041;-71
2021/10/05 01:21:09;;;;;;;5.20;4.18;;;;;;;11.77;46.47;94514.69;5010210;28;20047;-76
2021/10/05 01:23:35;;;;;;;5.85;4.25;;;;;;;11.70;46.89;94500.97;4945456;28;20504;-76
2021/10/05 01:26:01;;;;;;;7.18;4.10;;;;;;;11.67;46.88;94496.25;5012390;28;20056;-76
2021/10/05 01:28:27;;;;;;;5.03;3.70;;;;;;;11.65;46.90;94492.31;5000063;28;20083;-76
2021/10/05 01:30:53;;;;;;;5.85;4.43;;;;;;;11.61;47.07;94500.13;5012561;28;20404;-76
2021/10/05 01:33:22;;;;;;;6.10;3.72;;;;;;;11.58;47.09;94508.75;5004832;28;20032;-76
2021/10/05 01:35:48;;;;;;;6.68;4.53;;;;;;;11.51;47.27;94503.81;5009984;28;20408;-76
2021/10/05 01:38:13;;;;;;;4.88;3.90;;;;;;;11.42;47.51;94492.28;5010034;28;20435;-74
2021/10/05 01:40:39;;;;;;;6.35;3.53;;;;;;;11.47;47.49;94502.81;5008409;28;20088;-76
2021/10/05 01:43:04;;;;;;;9.00;4.72;;;;;;;11.43;47.73;94512.50;5002425;28;20392;-76
2021/10/05 01:45:30;;;;;;;6.15;4.40;;;;;;;11.35;47.78;94507.09;5018377;28;20395;-76
2021/10/05 01:47:56;;;;;;;6.05;4.35;;;;;;;11.39;48.09;94502.75;5015224;28;20105;-74
2021/10/05 01:50:21;;;;;;;5.57;4.53;;;;;;;11.35;48.05;94509.75;5010885;28;20682;-76
2021/10/05 01:52:48;;;;;;;6.13;3.25;;;;;;;11.27;47.82;94500.59;5006895;28;20835;-77
2021/10/05 01:55:13;;;;;;;5.18;3.90;;;;;;;11.28;48.09;94498.75;5016622;28;20038;-75
2021/10/05 01:57:40;;;;;;;5.25;3.90;;;;;;;11.10;48.09;94477.28;5007177;28;20518;-71
2021/10/05 02:00:06;;;;;;;4.55;3.55;;;;;;;11.24;47.90;94503.09;5024089;28;20043;-76
2021/10/05 02:02:32;;;;;;;5.82;3.78;;;;;;;11.15;47.88;94489.69;5008982;28;20034;-76
2021/10/05 02:05:03;;;;;;;6.53;3.70;;;;;;;11.27;48.07;94507.81;5008542;28;20037;-71
2021/10/05 02:07:29;;;;;;;6.10;3.95;;;;;;;11.17;47.96;94504.28;5009082;28;20033;-75
2021/10/05 02:09:54;;;;;;;5.80;4.07;;;;;;;11.10;48.11;94506.56;5009677;28;20561;-76
2021/10/05 02:12:26;;;;;;;7.93;4.68;;;;;;;11.09;48.36;94507.66;5010146;28;20044;-74
2021/10/05 02:14:51;;;;;;;7.50;4.47;;;;;;;11.05;48.57;94506.66;5011750;28;20034;-75
2021/10/05 02:17:17;;;;;;;4.70;3.92;;;;;;;10.81;48.61;94466.19;5014299;28;20049;-77
2021/10/05 02:19:43;;;;;;;7.47;4.43;;;;;;;10.95;48.07;94476.84;5005417;28;20038;-77
2021/10/05 02:22:09;;;;;;;5.72;4.22;;;;;;;11.15;48.36;94501.13;5008888;28;20041;-76
2021/10/05 02:24:42;;;;;;;5.38;4.00;;;;;;;11.09;48.02;94486.38;5006422;28;20029;-76
2021/10/05 02:27:08;;;;;;;7.05;5.55;;;;;;;10.99;48.36;94481.25;5005866;28;20106;-76
2021/10/05 02:29:36;;;;;;;5.53;4.60;;;;;;;11.03;48.11;94484.91;5004218;28;20049;-77
2021/10/05 02:32:04;;;;;;;5.72;4.78;;;;;;;11.04;48.28;94483.81;5011824;28;20112;-78
2021/10/05 02:34:29;;;;;;;6.07;5.00;;;;;;;10.99;48.40;94478.59;5007750;28;20041;-78
2021/10/05 02:36:55;;;;;;;5.53;4.53;;;;;;;11.09;48.08;94501.56;5006978;28;20049;-75
2021/10/05 02:39:20;;;;;;;7.97;4.55;;;;;;;10.99;48.50;94502.56;5009881;28;20045;-77
2021/10/05 02:41:46;;;;;;;6.38;4.70;;;;;;;10.97;48.65;94503.94;5009262;28;20222;-77
2021/10/05 02:44:11;;;;;;;6.55;4.93;;;;;;;10.98;48.31;94492.19;5002719;28;20125;-77
2021/10/05 02:46:37;;;;;;;6.63;4.55;;;;;;;10.97;48.45;94503.94;5010090;28;20511;-75
2021/10/05 02:49:03;;;;;;;5.03;4.13;;;;;;;10.91;48.50;94499.78;5005258;28;20053;-77
2021/10/05 02:51:28;;;;;;;8.40;4.57;;;;;;;10.90;48.53;94493.69;5006432;28;20033;-76
2021/10/05 02:53:54;;;;;;;6.55;4.68;;;;;;;10.87;48.30;94488.16;5012206;28;20459;-77
2021/10/05 02:56:19;;;;;;;5.53;4.38;;;;;;;10.95;48.38;94506.91;4999738;28;20620;-77
2021/10/05 02:58:44;;;;;;;4.88;3.58;;;;;;;10.96;48.59;94502.34;5010387;28;20064;-76
2021/10/05 03:01:10;;;;;;;5.32;4.25;;;;;;;10.81;48.63;94490.13;5008033;28;20535;-76
2021/10/05 03:03:36;;;;;;;5.95;4.63;;;;;;;10.86;49.02;94507.88;5002861;28;20063;-72
2021/10/05 03:06:01;;;;;;;7.03;4.72;;;;;;;10.92;48.61;94499.50;5014153;28;20049;-78
2021/10/05 03:08:29;;;;;;;6.53;4.95;;;;;;;10.91;48.54;94502.44;5010143;28;20046;-78
2021/10/05 03:10:55;;;;;;;5.30;4.13;;;;;;;10.89;48.80;94505.44;5010476;28;20393;-78
2021/10/05 03:13:20;;;;;;;8.02;5.13;;;;;;;10.86;48.81;94503.34;5006022;28;20041;-77
2021/10/05 03:15:47;;;;;;;8.70;5.97;;;;;;;10.87;48.61;94504.94;5009801;28;20045;-77
2021/10/05 03:18:13;;;;;;;6.22;4.35;;;;;;;10.87;48.76;94504.13;5011286;28;20021;-77
2021/10/05 03:20:39;;;;;;;6.18;5.13;;;;;;;10.79;48.49;94502.97;5004824;28;20046;-76
2021/10/05 03:23:08;;;;;;;7.50;4.20;;;;;;;10.89;48.77;94508.09;5002994;28;20577;-75
2021/10/05 03:25:33;;;;;;;5.50;4.13;;;;;;;10.83;48.55;94514.59;5008589;28;20036;-77
2021/10/05 03:27:59;;;;;;;5.15;4.20;;;;;;;10.81;48.76;94510.66;5008749;28;20049;-78
2021/10/05 03:30:25;;;;;;;6.40;4.45;;;;;;;10.82;48.76;94510.34;5013055;28;20533;-77
2021/10/05 03:32:50;;;;;;;7.90;5.18;;;;;;;10.75;48.85;94517.97;5005096;28;20030;-76
2021/10/05 03:35:15;;;;;;;8.15;4.18;;;;;;;10.62;48.90;94497.44;5001493;28;20042;-77
2021/10/05 03:37:41;;;;;;;6.18;3.83;;;;;;;10.62;48.91;94505.44;5009525;28;20427;-77
2021/10/05 03:40:07;;;;;;;5.78;4.70;;;;;;;10.59;49.33;94508.69;5006004;28;20050;-73
2021/10/05 03:42:32;;;;;;;6.90;4.30;;;;;;;10.69;49.29;94519.94;5008426;28;20025;-77
2021/10/05 03:44:58;;;;;;;5.68;3.83;;;;;;;10.60;49.03;94520.91;5011179;28;20033;-77
2021/10/05 03:47:24;;;;;;;5.82;4.47;;;;;;;10.59;49.20;94524.66;5003713;28;20042;-76
2021/10/05 03:49:49;;;;;;;7.97;5.30;;;;;;;10.54;48.89;94508.78;5007154;28;20645;-76
2021/10/05 03:52:15;;;;;;;5.90;4.65;;;;;;;10.55;49.39;94523.66;5007262;28;20044;-76
2021/10/05 03:54:42;;;;;;;9.20;4.95;;;;;;;10.56;49.22;94526.00;5011450;28;20116;-77
2021/10/05 03:57:07;;;;;;;8.02;5.20;;;;;;;10.57;49.12;94522.28;5007617;28;20364;-77
2021/10/05 03:59:33;;;;;;;6.30;4.32;;;;;;;10.56;49.25;94515.38;5007567;28;20098;-77
2021/10/05 04:01:58;;;;;;;6.10;3.90;;;;;;;10.64;49.44;94527.22;5009804;28;20030;-77
2021/10/05 04:04:24;;;;;;;7.47;3.67;;;;;;;10.61;49.26;94517.94;5008603;28;20037;-77
2021/10/05 04:06:49;;;;;;;6.28;3.70;;;;;;;10.73;49.09;94530.75;5007967;28;20049;-75
2021/10/05 04:09:14;;;;;;;7.88;4.43;;;;;;;10.63;49.25;94520.31;5007485;28;20692;-76
2021/10/05 04:11:40;;;;;;;6.57;4.43;;;;;;;10.60;49.54;94520.91;5007021;28;20098;-76
2021/10/05 04:14:05;;;;;;;5.00;3.95;;;;;;;10.59;49.49;94516.66;5010041;28;20658;-77
2021/10/05 04:16:31;;;;;;;7.78;4.65;;;;;;;10.58;49.17;94507.09;5006522;28;20396;-73
2021/10/05 04:18:56;;;;;;;5.03;4.03;;;;;;;10.59;49.04;94508.69;5008375;28;20057;-76
2021/10/05 04:21:21;;;;;;;7.00;4.35;;;;;;;10.69;49.26;94535.09;5006246;28;20037;-75
2021/10/05 04:23:47;;;;;;;4.88;4.10;;;;;;;10.70;49.01;94536.69;5008525;28;20083;-77
2021/10/05 04:26:13;;;;;;;5.47;3.75;;;;;;;10.72;48.89;94537.16;5008975;28;20133;-77
2021/10/05 04:28:39;;;;;;;7.38;4.45;;;;;;;10.59;49.25;94522.00;5007655;28;20037;-76
2021/10/05 04:31:04;;;;;;;7.93;4.40;;;;;;;10.63;49.44;94533.59;5007055;28;20050;-76
2021/10/05 04:33:30;;;;;;;6.43;4.63;;;;;;;10.63;49.14;94530.94;5006544;28;20505;-74
2021/10/05 04:35:56;;;;;;;6.38;4.10;;;;;;;10.57;48.87;94524.94;5006739;28;20152;-76
2021/10/05 04:38:22;;;;;;;6.80;4.15;;;;;;;10.67;49.36;94542.56;5000464;28;20500;-76
2021/10/05 04:40:47;;;;;;;6.75;5.03;;;;;;;10.38;48.93;94483.56;5002162;28;20036;-78
2021/10/05 04:43:12;;;;;;;5.43;4.47;;;;;;;10.61;48.90;94523.25;4998342;28;20050;-77
2021/10/05 04:45:38;;;;;;;6.43;4.45;;;;;;;10.67;49.25;94542.56;5007278;28;20057;-77
2021/10/05 04:48:05;;;;;;;10.40;5.28;;;;;;;10.76;48.83;94537.38;5009319;28;20032;-76
2021/10/05 04:50:30;;;;;;;5.32;3.85;;;;;;;10.90;48.90;94562.09;5005125;28;20033;-76
2021/10/05 04:52:57;;;;;;;6.55;4.65;;;;;;;10.66;49.25;94562.31;5004647;28;20472;-72
2021/10/05 04:55:23;;;;;;;8.38;4.75;;;;;;;10.70;49.15;94557.97;5021639;28;20044;-77
2021/10/05 04:57:48;;;;;;;6.80;4.93;;;;;;;10.62;49.71;94555.97;5002007;28;20033;-77
2021/10/05 05:00:15;;;;;;;7.55;4.93;;;;;;;10.68;50.05;94563.56;5003015;28;20040;-74
2021/10/05 05:02:40;;;;;;;7.03;5.68;;;;;;;10.52;50.02;94545.50;5017866;28;20468;-77
2021/10/05 05:05:06;;;;;;;7.65;4.45;;;;;;;10.54;50.19;94557.44;5005264;28;20041;-78
2021/10/05 05:07:33;;;;;;;6.72;4.82;;;;;;;10.62;50.33;94566.59;5006472;28;20046;-76
2021/10/05 05:09:59;;;;;;;6.03;4.55;;;;;;;10.83;50.05;94573.13;5010033;28;20055;-77
2021/10/05 05:12:24;;;;;;;6.00;4.88;;;;;;;10.88;49.46;94549.09;5011884;28;20030;-76
2021/10/05 05:14:49;;;;;;;8.32;5.45;;;;;;;10.78;49.80;94553.81;5012470;28;20099;-78
2021/10/05 05:17:15;;;;;;;8.65;5.22;;;;;;;10.88;49.90;94574.91;5013656;28;20045;-77
2021/10/05 05:19:40;;;;;;;6.25;4.50;;;;;;;10.94;49.76;94571.84;5008519;28;20038;-78
2021/10/05 05:22:06;;;;;;;6.70;5.00;;;;;;;10.95;50.10;94583.28;5012666;28;20053;-76
2021/10/05 05:24:31;;;;;;;8.43;5.45;;;;;;;10.87;50.21;94562.69;5009500;28;20026;-77
2021/10/05 05:26:56;;;;;;;9.77;6.22;;;;;;;10.95;49.82;94559.34;5013630;28;20404;-78
2021/10/05 05:29:22;;;;;;;11.20;6.25;;;;;;;11.20;50.00;94584.66;5005231;28;20452;-77
2021/10/05 05:31:48;;;;;;;9.88;7.28;;;;;;;11.11;50.09;94574.69;5006305;28;20052;-77
2021/10/05 05:34:14;;;;;;;12.48;6.82;;;;;;;11.31;49.80;94594.00;5006667;28;20049;-77
2021/10/05 05:36:40;;;;;;;9.65;6.88;;;;;;;11.43;49.79;94588.97;5008655;28;20399;-76
2021/10/05 05:39:07;;;;;;;9.07;6.53;;;;;;;11.40;48.94;94573.56;5006273;28;20025;-74
2021/10/05 05:41:32;;;;;;;12.07;7.55;;;;;;;11.54;49.34;94590.34;5008819;28;20041;-75
2021/10/05 05:43:59;;;;;;;10.85;7.78;;;;;;;11.62;49.14;94588.84;5002048;28;20555;-74
2021/10/05 05:46:24;;;;;;;11.73;8.35;;;;;;;11.45;49.05;94562.78;5010706;28;20364;-76
2021/10/05 05:48:49;;;;;;;9.35;7.95;;;;;;;11.59;48.96;94564.38;5009109;28;20112;-76
2021/10/05 05:51:15;;;;;;;10.90;7.57;;;;;;;11.68;48.53;94569.78;5008810;28;20026;-76
2021/10/05 05:53:40;;;;;;;12.48;7.88;;;;;;;12.00;48.32;94584.75;5009401;28;20044;-76
2021/10/05 05:56:05;;;;;;;11.95;8.57;;;;;;;11.93;48.26;94579.84;5011057;28;20103;-76
2021/10/05 05:58:31;;;;;;;14.20;8.38;;;;;;;11.88;48.54;94571.97;5001421;28;20037;-71
2021/10/05 06:00:56;;;;;;;11.13;8.48;;;;;;;12.08;48.27;94588.59;5012326;28;20034;-76
2021/10/05 06:03:34;;;;;;;12.48;9.27;;;;;;;12.04;47.78;94567.84;5012378;28;20031;-73
2021/10/05 06:06:01;;;;;;;12.27;8.27;;;;;;;12.08;48.39;94585.94;5007358;28;20033;-77
2021/10/05 06:08:37;;;;;;;15.77;8.90;;;;;;;12.22;47.52;94575.97;5008924;28;20585;-76
2021/10/05 06:11:02;;;;;;;10.77;8.10;;;;;;;12.26;47.50;94576.94;5006958;28;20435;-76
2021/10/05 06:13:28;;;;;;;11.20;8.45;;;;;;;12.41;47.17;94589.91;5010728;28;20038;-77
2021/10/05 06:15:53;;;;;;;18.33;9.05;;;;;;;12.37;47.93;94591.59;5010565;28;20129;-76
2021/10/05 06:18:19;;;;;;;11.80;8.13;;;;;;;12.57;47.25;94596.41;5010275;28;20026;-74
2021/10/05 06:20:44;;;;;;;13.07;9.32;;;;;;;12.60;46.71;94577.16;5006876;28;20025;-75
2021/10/05 06:23:09;;;;;;;12.75;9.52;;;;;;;12.48;47.08;94571.56;5011897;28;20126;-76
2021/10/05 06:25:40;;;;;;;12.63;8.23;;;;;;;12.58;47.12;94584.69;5013192;28;20041;-75
2021/10/05 06:28:05;;;;;;;12.93;8.75;;;;;;;12.60;46.65;94565.69;5008177;28;20068;-76
2021/10/05 06:30:31;;;;;;;14.07;8.80;;;;;;;12.68;47.22;94584.41;5006673;28;20479;-76
2021/10/05 06:32:57;;;;;;;15.57;9.88;;;;;;;12.67;47.10;94572.16;5009197;28;20326;-75
2021/10/05 06:35:25;;;;;;;13.27;8.77;;;;;;;12.95;46.84;94599.47;5010327;28;20029;-77
2021/10/05 06:37:55;;;;;;;11.35;8.57;;;;;;;12.95;46.65;94598.66;5012087;28;20049;-76
2021/10/05 06:40:22;;;;;;;9.77;7.75;;;;;;;12.96;47.06;94587.66;5007629;28;20034;-76
2021/10/05 06:42:48;;;;;;;14.23;9.05;;;;;;;13.12;46.32;94596.03;5012258;28;20038;-76
2021/10/05 06:45:13;;;;;;;15.13;10.23;;;;;;;12.87;47.51;94595.63;5007940;28;20088;-77
2021/10/05 06:47:39;;;;;;;12.75;9.48;;;;;;;12.69;48.19;94594.00;5010086;28;20059;-76
2021/10/05 06:50:05;;;;;;;12.30;8.23;;;;;;;12.61;48.32;94585.97;5007632;28;20734;-75
2021/10/05 06:52:31;;;;;;;16.88;10.98;;;;;;;12.39;49.01;94586.75;5008331;28;20037;-76
2021/10/05 06:54:57;;;;;;;13.35;8.70;;;;;;;12.37;48.46;94572.94;5003769;28;20620;-71
2021/10/05 06:57:22;;;;;;;11.48;8.23;;;;;;;12.79;48.58;94580.38;5006711;28;20365;-76
2021/10/05 06:59:48;;;;;;;12.63;8.50;;;;;;;12.68;48.20;94556.94;5006422;28;20394;-75
2021/10/05 07:02:13;;;;;;;13.65;8.38;;;;;;;12.59;48.24;94570.25;5008477;28;20036;-76
2021/10/05 07:04:39;;;;;;;11.95;8.23;;;;;;;12.58;48.52;94568.66;5006535;28;20255;-76
2021/10/05 07:07:04;;;;;;;12.00;8.93;;;;;;;12.69;48.52;94563.84;5010394;28;20586;-75
2021/10/05 07:09:29;;;;;;;13.90;9.13;;;;;;;12.61;48.58;94568.06;4996623;28;20037;-75
2021/10/05 07:11:55;;;;;;;14.05;9.15;;;;;;;12.44;49.13;94563.38;5008816;28;20621;-77
2021/10/05 07:14:21;;;;;;;16.13;9.60;;;;;;;12.68;48.99;94570.28;5007782;28;20116;-75
2021/10/05 07:16:46;;;;;;;16.48;8.75;;;;;;;12.58;48.88;94574.00;5012460;28;20128;-76
2021/10/05 07:19:12;;;;;;;13.68;9.52;;;;;;;12.89;48.49;94574.78;5011074;28;20038;-76
2021/10/05 07:21:37;;;;;;;10.32;7.78;;;;;;;12.80;48.66;94538.47;5009488;28;20480;-76
2021/10/05 07:24:03;;;;;;;11.10;7.38;;;;;;;12.87;48.81;94576.94;5009956;28;20354;-75
2021/10/05 07:26:29;;;;;;;10.57;7.35;;;;;;;12.55;49.25;94555.13;5012039;28;20959;-75
2021/10/05 07:28:55;;;;;;;11.07;7.72;;;;;;;12.59;49.66;94580.91;5012047;28;20043;-76
2021/10/05 07:31:20;;;;;;;11.20;6.55;;;;;;;12.98;49.46;94568.66;4996180;28;20037;-77
2021/10/05 07:33:45;;;;;;;8.45;6.38;;;;;;;13.06;48.84;94538.53;5010594;28;20053;-76
2021/10/05 07:36:12;;;;;;;9.63;5.43;;;;;;;13.46;48.04;94573.97;5010876;28;20029;-76
2021/10/05 07:38:38;;;;;;;7.97;5.82;;;;;;;13.33;48.31;94578.34;5009869;28;20404;-77
2021/10/05 07:41:07;;;;;;;10.70;6.90;;;;;;;13.27;48.66;94580.38;5003519;28;20034;-72
2021/10/05 07:43:32;;;;;;;7.90;5.15;;;;;;;13.37;49.13;94555.25;5004805;28;20080;-77
2021/10/05 07:46:00;;;;;;;11.32;5.80;;;;;;;13.84;48.21;94582.22;5014097;28;20431;-75
2021/10/05 07:48:25;;;;;;;10.77;5.63;;;;;;;13.89;47.50;94568.66;5003665;28;20042;-77
2021/10/05 07:50:51;;;;;;;8.75;6.35;;;;;;;14.10;47.06;94580.31;5010334;28;20419;-75
2021/10/05 07:53:18;;;;;;;8.00;5.45;;;;;;;14.05;47.13;94553.72;5005774;28;20321;-76
2021/10/05 07:55:43;;;;;;;6.85;5.60;;;;;;;14.15;46.55;94562.22;5010766;28;20080;-75
2021/10/05 07:58:09;;;;;;;8.88;5.75;;;;;;;14.18;46.71;94566.13;5003353;28;20034;-74
2021/10/05 08:00:34;;;;;;;8.23;5.68;;;;;;;14.24;46.26;94567.53;5003851;28;20055;-76
2021/10/05 08:03:00;;;;;;;7.15;5.68;;;;;;;14.42;45.72;94560.28;5008955;28;20103;-74
2021/10/05 08:05:25;;;;;;;8.00;5.90;;;;;;;14.36;46.23;94557.00;4997188;28;20049;-76
2021/10/05 08:08:01;;;;;;;7.80;5.30;;;;;;;13.96;46.60;94516.28;5006085;28;20609;-75
2021/10/05 08:10:27;;;;;;;8.68;6.55;;;;;;;14.31;46.74;94569.75;5009517;28;20128;-75
2021/10/05 08:12:53;;;;;;;7.68;5.70;;;;;;;14.67;45.49;94562.09;4999844;28;20569;-77
2021/10/05 08:15:18;;;;;;;7.43;6.20;;;;;;;14.82;45.48;94571.50;5009709;28;20037;-72
2021/10/05 08:17:44;;;;;;;6.90;5.10;;;;;;;14.63;45.45;94560.38;5010924;28;20045;-75
2021/10/05 08:20:10;;;;;;;8.25;5.45;;;;;;;14.35;45.42;94507.25;5005591;28;20037;-77
2021/10/05 08:22:36;;;;;;;9.40;5.68;;;;;;;14.92;45.31;94568.47;5004907;28;20493;-74
2021/10/05 08:25:02;;;;;;;8.38;6.43;;;;;;;14.50;45.55;94544.19;5011486;28;20060;-77
2021/10/05 08:27:28;;;;;;;8.88;6.20;;;;;;;14.56;46.00;94577.75;5006785;28;20026;-77
2021/10/05 08:29:53;;;;;;;6.20;5.10;;;;;;;14.59;45.63;94577.09;5009147;28;20389;-78
2021/10/05 08:32:19;;;;;;;9.43;5.75;;;;;;;14.82;45.86;94574.19;5006329;28;20416;-76
2021/10/05 08:34:47;;;;;;;12.82;7.82;;;;;;;14.94;45.63;94576.97;5007599;28;20041;-72
2021/10/05 08:37:13;;;;;;;10.45;5.90;;;;;;;15.22;44.73;94570.06;5008897;28;20045;-77
2021/10/05 08:39:38;;;;;;;14.13;7.03;;;;;;;15.21;43.87;94565.81;5011137;28;20411;-77
2021/10/05 08:42:05;;;;;;;8.75;5.80;;;;;;;14.93;44.82;94548.63;5003806;28;20067;-77
2021/10/05 08:44:30;;;;;;;6.82;5.40;;;;;;;15.00;45.61;94538.22;5005386;28;20075;-77
2021/10/05 08:46:56;;;;;;;8.95;6.13;;;;;;;15.32;45.21;94558.97;5003910;28;20152;-75
2021/10/05 08:49:23;;;;;;;8.00;5.45;;;;;;;15.37;45.30;94569.50;5004335;28;20619;-76
2021/10/05 08:51:51;;;;;;;8.63;6.22;;;;;;;15.37;44.95;94558.00;5008337;28;20060;-76
2021/10/05 08:54:17;;;;;;;7.45;5.10;;;;;;;15.34;44.44;94555.97;5010404;28;20679;-76
2021/10/05 08:56:43;;;;;;;9.27;5.50;;;;;;;15.45;44.92;94555.28;5007742;28;20041;-78
2021/10/05 08:59:09;;;;;;;10.20;5.50;;;;;;;15.41;44.68;94535.59;5005043;28;20037;-76
2021/10/05 09:01:36;;;;;;;10.75;6.40;;;;;;;15.66;44.23;94543.78;5007306;28;20172;-75
2021/10/05 09:04:03;;;;;;;8.73;5.93;;;;;;;15.74;43.38;94540.28;5009997;28;20052;-77
2021/10/05 09:06:29;;;;;;;6.22;4.68;;;;;;;15.99;43.41;94544.63;5007397;28;20464;-76
2021/10/05 09:08:56;;;;;;;8.40;5.82;;;;;;;16.03;42.99;94542.88;5005336;28;20323;-78
2021/10/05 09:11:27;;;;;;;8.00;5.10;;;;;;;15.79;43.37;94534.72;5008775;28;20033;-77
2021/10/05 09:13:55;;;;;;;6.80;5.13;;;;;;;15.81;43.14;94538.63;5010194;28;20038;-76
2021/10/05 09:16:25;;;;;;;7.82;5.57;;;;;;;15.85;42.97;94536.84;5012114;28;20037;-77
2021/10/05 09:18:57;;;;;;;7.13;4.90;;;;;;;15.79;42.93;94537.41;5008959;28;20092;-78
2021/10/05 09:21:24;;;;;;;7.57;5.35;;;;;;;15.95;43.24;94541.03;5009691;28;20021;-73
2021/10/05 09:23:55;;;;;;;6.55;4.72;;;;;;;15.91;43.19;94529.41;5009627;28;20780;-76
2021/10/05 09:26:35;;;;;;;8.38;5.00;;;;;;;15.91;43.01;94518.66;5009968;28;20033;-76
2021/10/05 09:29:14;;;;;;;8.50;5.43;;;;;;;15.87;43.00;94533.84;5007745;28;20041;-76
2021/10/05 09:32:03;;;;;;;7.57;4.70;;;;;;;15.76;42.81;94525.41;5008756;28;20618;-77
2021/10/05 09:34:56;;;;;;;7.55;5.32;;;;;;;15.80;43.46;94522.84;5006385;28;20484;-77
2021/10/05 09:37:31;;;;;;;6.57;3.90;;;;;;;16.00;42.95;94526.63;5007292;28;20045;-77
2021/10/05 09:40:03;;;;;;;6.60;3.78;;;;;;;16.22;42.91;94521.69;5007925;28;20443;-77
2021/10/05 09:42:41;;;;;;;7.68;5.18;;;;;;;16.41;41.82;94526.59;5005088;28;20290;-77
2021/10/05 09:45:24;;;;;;;5.68;3.83;;;;;;;16.47;42.16;94524.47;5011308;28;20053;-77
2021/10/05 09:47:51;;;;;;;7.10;4.38;;;;;;;16.63;41.43;94536.91;5008010;28;20175;-77
2021/10/05 09:50:22;;;;;;;10.43;5.22;;;;;;;16.56;41.74;94533.22;5005808;28;20042;-72
2021/10/05 09:52:57;;;;;;;6.38;4.40;;;;;;;16.80;41.60;94524.41;5007495;28;20046;-78
2021/10/05 09:55:25;;;;;;;6.80;4.05;;;;;;;16.81;40.94;94529.44;5014496;28;20519;-78
2021/10/05 09:57:52;;;;;;;8.18;4.72;;;;;;;16.92;41.21;94521.72;5014330;28;20054;-77
2021/10/05 10:00:20;;;;;;;5.35;4.10;;;;;;;17.07;40.87;94524.53;5008794;28;20264;-76
2021/10/05 10:02:45;;;;;;;6.72;3.85;;;;;;;17.03;41.27;94528.22;5016384;28;20471;-77
2021/10/05 10:05:17;;;;;;;5.38;3.53;;;;;;;16.93;41.16;94524.06;5012604;28;20045;-76
2021/10/05 10:07:49;;;;;;;9.55;3.92;;;;;;;17.14;40.99;94515.94;5011879;28;20044;-78
2021/10/05 10:10:20;;;;;;;4.38;3.40;;;;;;;17.36;41.10;94522.72;5015853;28;20045;-77
2021/10/05 10:12:52;;;;;;;5.00;3.95;;;;;;;17.30;40.95;94513.34;5005996;28;20503;-76
2021/10/05 10:15:18;;;;;;;4.15;3.35;;;;;;;17.04;40.94;94509.06;5014726;28;20029;-77
2021/10/05 10:17:44;;;;;;;7.30;3.78;;;;;;;16.82;41.25;94504.13;5018944;28;20061;-77
2021/10/05 10:20:25;;;;;;;4.45;3.33;;;;;;;16.72;41.76;94518.03;5011232;28;20108;-77
2021/10/05 10:22:51;;;;;;;6.00;3.83;;;;;;;16.38;42.15;94470.09;5010564;28;20714;-78
2021/10/05 10:25:22;;;;;;;5.95;3.50;;;;;;;16.91;41.66;94510.22;5011149;28;20045;-77
2021/10/05 10:27:47;;;;;;;6.57;3.65;;;;;;;17.06;41.38;94498.75;5014086;28;20184;-78
2021/10/05 10:30:13;;;;;;;5.93;4.03;;;;;;;17.18;42.27;94500.69;5008364;28;20216;-77
2021/10/05 10:32:50;;;;;;;4.63;3.08;;;;;;;17.36;40.65;94498.53;4999270;28;21010;-77
2021/10/05 10:35:16;;;;;;;4.65;3.10;;;;;;;17.58;40.80;94495.34;5006747;28;20049;-78
2021/10/05 10:37:50;;;;;;;6.40;3.45;;;;;;;17.47;39.96;94481.59;5005836;28;20587;-78
2021/10/05 10:40:32;;;;;;;3.70;3.03;;;;;;;17.78;42.17;94493.63;5001682;28;20042;-72
2021/10/05 10:42:57;;;;;;;4.53;3.08;;;;;;;17.74;39.89;94482.75;5008691;28;20172;-77
2021/10/05 10:45:22;;;;;;;4.57;2.67;;;;;;;17.81;40.44;94464.13;5007175;28;20066;-78
2021/10/05 10:47:54;;;;;;;4.97;3.42;;;;;;;17.75;39.62;94470.84;5011537;28;20036;-77
2021/10/05 10:50:20;;;;;;;6.20;2.78;;;;;;;17.78;39.77;94480.94;5003423;28;20526;-77
2021/10/05 10:52:48;;;;;;;6.00;3.33;;;;;;;17.56;39.81;94482.25;5001375;28;20041;-74
2021/10/05 10:55:17;;;;;;;3.13;2.70;;;;;;;17.53;39.52;94479.47;5010376;28;20048;-77
2021/10/05 10:58:05;;;;;;;4.57;2.90;;;;;;;17.55;39.41;94471.84;5009946;28;20037;-72
2021/10/05 11:00:40;;;;;;;4.05;3.20;;;;;;;17.65;39.59;94465.97;5015046;28;20086;-77
2021/10/05 11:03:07;;;;;;;3.88;2.50;;;;;;;17.79;38.63;94469.06;5012568;28;20438;-76
2021/10/05 11:05:36;;;;;;;3.70;2.78;;;;;;;17.93;38.72;94482.94;5011469;28;20034;-76
2021/10/05 11:08:11;;;;;;;5.30;3.55;;;;;;;17.98;38.31;94473.84;5010848;28;20598;-76
2021/10/05 11:10:36;;;;;;;4.50;3.22;;;;;;;17.95;38.70;94471.81;5005501;28;20104;-77
2021/10/05 11:13:05;;;;;;;5.55;3.17;;;;;;;18.06;38.58;94459.44;5005603;28;20056;-72
2021/10/05 11:15:31;;;;;;;4.10;3.20;;;;;;;17.85;38.70;94459.59;5009810;28;20033;-78
2021/10/05 11:18:11;;;;;;;4.30;2.83;;;;;;;17.77;39.03;94449.78;5012405;28;20110;-76
2021/10/05 11:20:44;;;;;;;3.33;3.03;;;;;;;17.89;38.71;94463.16;5011199;28;20164;-76
2021/10/05 11:23:09;;;;;;;3.85;2.55;;;;;;;18.00;38.50;94456.22;5001765;28;20045;-76
2021/10/05 11:25:34;;;;;;;3.08;2.60;;;;;;;18.04;39.24;94446.31;5014492;28;20034;-76
2021/10/05 11:28:09;;;;;;;5.13;3.92;;;;;;;18.21;40.18;94442.53;5011142;28;20107;-78
2021/10/05 11:30:45;;;;;;;2.42;2.22;;;;;;;18.51;38.32;94444.81;5003858;28;20076;-78